createdAt,value
2023-04-27T00:00:59.870Z,58.5562
2023-04-27T00:02:01.542Z,59.1338
2023-04-27T00:03:03.461Z,59.7531
2023-04-27T00:04:05.061Z,59.1800
2023-04-27T00:05:06.480Z,58.2800
2023-04-27T00:06:08.663Z,58.3477
2023-04-27T00:07:09.706Z,58.9785
2023-04-27T00:08:11.357Z,58.3108
2023-04-27T00:09:13.276Z,59.2515
2023-04-27T00:10:14.606Z,58.4923
2023-04-27T00:11:16.396Z,59.0300
2023-04-27T00:12:18.028Z,58.4454
2023-04-27T00:13:19.654Z,58.3038
2023-04-27T00:14:21.234Z,58.9608
2023-04-27T00:15:22.872Z,59.0423
2023-04-27T00:16:25.639Z,58.6992
2023-04-27T00:17:26.302Z,58.0746
2023-04-27T00:18:27.903Z,57.6015
2023-04-27T00:19:29.462Z,57.6977
2023-04-27T00:20:31.245Z,57.3592
2023-04-27T00:21:32.739Z,57.8631
2023-04-27T00:22:34.522Z,58.3615
2023-04-27T00:23:36.111Z,58.2408
2023-04-27T00:24:37.747Z,58.1677
2023-04-27T00:25:39.426Z,58.2462
2023-04-27T00:26:40.993Z,58.6731
2023-04-27T00:27:42.601Z,58.8000
2023-04-27T00:28:44.423Z,58.5638
2023-04-27T00:29:45.996Z,58.1708
2023-04-27T00:30:47.613Z,58.0915
2023-04-27T00:31:49.212Z,57.6831
2023-04-27T00:32:50.965Z,57.4023
2023-04-27T00:33:52.495Z,57.4677
2023-04-27T00:34:54.222Z,57.7392
2023-04-27T00:35:55.816Z,58.1569
2023-04-27T00:36:57.440Z,57.7500
2023-04-27T00:37:59.176Z,57.7631
2023-04-27T00:39:00.723Z,57.7577
2023-04-27T00:40:02.479Z,57.1146
2023-04-27T00:41:04.129Z,58.6200
2023-04-27T00:42:05.702Z,58.0185
2023-04-27T00:43:07.415Z,58.0277
2023-04-27T00:44:09.077Z,58.1331
2023-04-27T00:45:10.768Z,57.1746
2023-04-27T00:46:12.405Z,57.6546
2023-04-27T00:47:14.022Z,57.1631
2023-04-27T00:48:15.677Z,57.9462
2023-04-27T00:49:17.338Z,58.2700
2023-04-27T00:50:19.091Z,57.9608
2023-04-27T00:51:20.616Z,58.0869
2023-04-27T00:52:22.252Z,57.2585
2023-04-27T00:53:23.914Z,58.0300
2023-04-27T00:54:25.536Z,58.4362
2023-04-27T00:55:27.245Z,57.7200
2023-04-27T00:56:28.824Z,58.9931
2023-04-27T00:57:30.668Z,58.9200
2023-04-27T00:58:32.132Z,58.0615
2023-04-27T00:59:33.781Z,57.7469
2023-04-27T01:00:35.673Z,57.3415
2023-04-27T01:01:37.151Z,57.4200
2023-04-27T01:02:38.909Z,57.0769
2023-04-27T01:03:40.602Z,57.2077
2023-04-27T01:04:42.101Z,57.0223
2023-04-27T01:05:43.693Z,57.1254
2023-04-27T01:06:45.333Z,58.0431
2023-04-27T01:07:47.057Z,58.5223
2023-04-27T01:08:48.592Z,57.7408
2023-04-27T01:09:50.297Z,57.6654
2023-04-27T01:10:51.896Z,58.3569
2023-04-27T01:11:53.815Z,58.0162
2023-04-27T01:12:55.366Z,57.6892
2023-04-27T01:13:56.956Z,58.0431
2023-04-27T01:14:58.531Z,56.9054
2023-04-27T01:16:00.192Z,56.9238
2023-04-27T01:17:01.986Z,56.3223
2023-04-27T01:18:03.556Z,57.0385
2023-04-27T01:19:05.098Z,57.3631
2023-04-27T01:20:06.855Z,58.1415
2023-04-27T01:21:09.343Z,57.9092
2023-04-27T01:22:10.129Z,57.7500
2023-04-27T01:23:11.753Z,57.4831
2023-04-27T01:24:13.437Z,58.0777
2023-04-27T01:25:15.021Z,58.3277
2023-04-27T01:26:16.630Z,58.2723
2023-04-27T01:27:18.361Z,58.5485
2023-04-27T01:28:19.964Z,58.2869
2023-04-27T01:29:22.605Z,57.2300
2023-04-27T01:30:23.236Z,57.4446
2023-04-27T01:31:25.230Z,57.0077
2023-04-27T01:32:26.597Z,56.6677
2023-04-27T01:33:28.149Z,57.4038
2023-04-27T01:34:29.872Z,57.7308
2023-04-27T01:35:31.430Z,57.5485
2023-04-27T01:36:33.170Z,57.3085
2023-04-27T01:37:34.724Z,57.8946
2023-04-27T01:38:36.407Z,58.3738
2023-04-27T01:39:38.097Z,58.1500
2023-04-27T01:40:39.726Z,58.5692
2023-04-27T01:41:41.455Z,58.6208
2023-04-27T01:42:42.982Z,58.3815
2023-04-27T01:43:44.776Z,57.9954
2023-04-27T01:44:46.660Z,57.8962
2023-04-27T01:45:47.962Z,57.5831
2023-04-27T01:46:49.724Z,57.0100
2023-04-27T01:47:51.241Z,57.3892
2023-04-27T01:48:52.897Z,57.7246
2023-04-27T01:49:54.613Z,58.1085
2023-04-27T01:50:57.175Z,58.2269
2023-04-27T01:51:57.926Z,57.7069
2023-04-27T01:52:59.528Z,58.0977
2023-04-27T01:54:01.119Z,58.3769
2023-04-27T01:55:02.778Z,58.2854
2023-04-27T01:56:04.434Z,57.9415
2023-04-27T01:57:06.076Z,58.2877
2023-04-27T01:58:07.751Z,57.0623
2023-04-27T01:59:10.643Z,57.2900
2023-04-27T02:00:10.999Z,57.0469
2023-04-27T02:01:12.704Z,57.1392
2023-04-27T02:02:14.339Z,57.5538
2023-04-27T02:03:16.065Z,58.0085
2023-04-27T02:04:17.916Z,56.5846
2023-04-27T02:05:19.264Z,57.4177
2023-04-27T02:06:20.895Z,57.2623
2023-04-27T02:07:23.481Z,57.4946
2023-04-27T02:08:24.173Z,58.0477
2023-04-27T02:09:25.936Z,58.4269
2023-04-27T02:10:27.568Z,58.0054
2023-04-27T02:11:29.219Z,57.8962
2023-04-27T02:12:30.753Z,57.6008
2023-04-27T02:13:32.344Z,57.4031
2023-04-27T02:14:34.133Z,56.3877
2023-04-27T02:15:35.691Z,56.7446
2023-04-27T02:16:37.478Z,57.1969
2023-04-27T02:17:39.904Z,57.9377
2023-04-27T02:18:40.639Z,57.6946
2023-04-27T02:19:42.298Z,57.9615
2023-04-27T02:20:44.340Z,58.0500
2023-04-27T02:21:46.593Z,57.4108
2023-04-27T02:22:48.101Z,57.5469
2023-04-27T02:23:48.777Z,58.3646
2023-04-27T02:24:50.531Z,57.6785
2023-04-27T02:25:52.123Z,57.4046
2023-04-27T02:26:53.772Z,57.1569
2023-04-27T02:27:55.400Z,57.4931
2023-04-27T02:28:57.049Z,56.3446
2023-04-27T02:29:58.723Z,56.7054
2023-04-27T02:31:00.354Z,57.8192
2023-04-27T02:32:02.138Z,58.2269
2023-04-27T02:33:03.641Z,57.9600
2023-04-27T02:34:05.297Z,58.0969
2023-04-27T02:35:06.953Z,58.1377
2023-04-27T02:36:08.552Z,58.7069
2023-04-27T02:37:10.189Z,57.7700
2023-04-27T02:38:11.851Z,58.0992
2023-04-27T02:39:13.712Z,57.4169
2023-04-27T02:40:15.134Z,56.8754
2023-04-27T02:41:16.850Z,56.9369
2023-04-27T02:42:18.401Z,56.6808
2023-04-27T02:43:20.097Z,56.2900
2023-04-27T02:44:21.711Z,56.5200
2023-04-27T02:45:23.431Z,57.2446
2023-04-27T02:46:25.088Z,57.2269
2023-04-27T02:47:26.678Z,57.7385
2023-04-27T02:48:28.319Z,57.5831
2023-04-27T02:49:29.932Z,57.1262
2023-04-27T02:50:31.612Z,58.1815
2023-04-27T02:51:33.242Z,58.4169
2023-04-27T02:52:34.905Z,57.6277
2023-04-27T02:53:36.474Z,58.0323
2023-04-27T02:54:38.156Z,57.8223
2023-04-27T02:55:39.884Z,56.9238
2023-04-27T02:56:41.529Z,56.9054
2023-04-27T02:57:43.043Z,56.3500
2023-04-27T02:58:44.758Z,56.4538
2023-04-27T02:59:46.373Z,57.4069
2023-04-27T03:00:48.940Z,57.6200
2023-04-27T03:01:49.718Z,58.0800
2023-04-27T03:02:51.519Z,57.5908
2023-04-27T03:03:53.179Z,58.0454
2023-04-27T03:04:54.598Z,57.5862
2023-04-27T03:05:56.315Z,57.7162
2023-04-27T03:06:57.917Z,57.8085
2023-04-27T03:07:59.613Z,57.2231
2023-04-27T03:09:01.194Z,57.3123
2023-04-27T03:10:02.828Z,56.9846
2023-04-27T03:11:04.542Z,56.0562
2023-04-27T03:12:06.192Z,56.3062
2023-04-27T03:13:07.772Z,57.2569
2023-04-27T03:14:09.368Z,57.6400
2023-04-27T03:15:11.098Z,57.7254
2023-04-27T03:16:13.601Z,58.0031
2023-04-27T03:17:14.629Z,57.6831
2023-04-27T03:18:16.006Z,57.7823
2023-04-27T03:19:17.599Z,57.9392
2023-04-27T03:20:19.326Z,58.6492
2023-04-27T03:21:20.945Z,57.9362
2023-04-27T03:22:22.638Z,57.1262
2023-04-27T03:23:24.236Z,57.5638
2023-04-27T03:24:25.883Z,57.6554
2023-04-27T03:25:27.527Z,56.6477
2023-04-27T03:26:29.301Z,56.0315
2023-04-27T03:27:30.837Z,55.7508
2023-04-27T03:28:32.552Z,56.3862
2023-04-27T03:29:34.038Z,57.3754
2023-04-27T03:30:35.784Z,57.4046
2023-04-27T03:31:37.461Z,57.8877
2023-04-27T03:32:39.091Z,57.4862
2023-04-27T03:33:40.686Z,56.9192
2023-04-27T03:34:42.300Z,57.7077
2023-04-27T03:35:44.010Z,57.4908
2023-04-27T03:36:45.678Z,56.3869
2023-04-27T03:37:47.333Z,56.9115
2023-04-27T03:38:48.877Z,56.4531
2023-04-27T03:39:50.569Z,56.1731
2023-04-27T03:40:52.288Z,56.1377
2023-04-27T03:41:53.927Z,56.1223
2023-04-27T03:42:56.645Z,56.9462
2023-04-27T03:43:57.257Z,56.9369
2023-04-27T03:44:58.867Z,57.1923
2023-04-27T03:46:00.569Z,57.0538
2023-04-27T03:47:02.096Z,57.4069
2023-04-27T03:48:03.881Z,58.1500
2023-04-27T03:49:05.435Z,57.5777
2023-04-27T03:50:07.680Z,56.8585
2023-04-27T03:51:08.715Z,57.7415
2023-04-27T03:52:10.385Z,56.6877
2023-04-27T03:53:12.057Z,56.6231
2023-04-27T03:54:13.720Z,56.0877
2023-04-27T03:55:15.308Z,55.6754
2023-04-27T03:56:16.973Z,56.1754
2023-04-27T03:57:18.560Z,54.9000
2023-04-27T03:58:20.279Z,54.4315
2023-04-27T03:59:21.875Z,54.0038
2023-04-27T04:00:23.584Z,53.7638
2023-04-27T04:01:25.226Z,54.4954
2023-04-27T04:02:26.975Z,54.5508
2023-04-27T04:03:28.728Z,53.2408
2023-04-27T04:04:30.337Z,52.7192
2023-04-27T04:05:31.814Z,52.4846
2023-04-27T04:06:33.368Z,52.7023
2023-04-27T04:07:35.044Z,52.3569
2023-04-27T04:08:36.632Z,51.7754
2023-04-27T04:09:38.708Z,51.9077
2023-04-27T04:10:40.133Z,51.7692
2023-04-27T04:11:41.618Z,51.6423
2023-04-27T04:12:43.229Z,51.2354
2023-04-27T04:13:44.880Z,50.8946
2023-04-27T04:14:46.578Z,50.1169
2023-04-27T04:15:48.269Z,49.8185
2023-04-27T04:16:49.816Z,49.6708
2023-04-27T04:17:51.476Z,49.6754
2023-04-27T04:18:53.086Z,49.9654
2023-04-27T04:19:54.757Z,50.0038
2023-04-27T04:20:56.459Z,49.8662
2023-04-27T04:21:58.007Z,49.7646
2023-04-27T04:22:59.704Z,49.7723
2023-04-27T04:24:01.331Z,49.4377
2023-04-27T04:25:03.036Z,48.8792
2023-04-27T04:26:04.613Z,48.6469
2023-04-27T04:27:06.267Z,48.5046
2023-04-27T04:28:07.865Z,48.1408
2023-04-27T04:29:10.992Z,48.2438
2023-04-27T04:30:11.140Z,48.1254
2023-04-27T04:31:12.930Z,47.9600
2023-04-27T04:32:14.499Z,48.0346
2023-04-27T04:33:16.061Z,48.2192
2023-04-27T04:34:17.816Z,48.2315
2023-04-27T04:35:19.371Z,47.9523
2023-04-27T04:36:21.112Z,47.8692
2023-04-27T04:37:23.172Z,47.6485
2023-04-27T04:38:24.374Z,47.7915
2023-04-27T04:39:25.938Z,48.0169
2023-04-27T04:40:27.587Z,47.8431
2023-04-27T04:41:29.279Z,47.8292
2023-04-27T04:42:30.957Z,47.8977
2023-04-27T04:43:32.526Z,47.7631
2023-04-27T04:44:34.199Z,47.8585
2023-04-27T04:45:35.814Z,47.8392
2023-04-27T04:46:37.734Z,47.9838
2023-04-27T04:47:39.793Z,47.8831
2023-04-27T04:48:40.752Z,48.2369
2023-04-27T04:49:42.420Z,48.0769
2023-04-27T04:50:44.092Z,47.9738
2023-04-27T04:51:45.801Z,47.6946
2023-04-27T04:52:47.400Z,48.1200
2023-04-27T04:53:49.033Z,48.3654
2023-04-27T04:54:50.698Z,48.2708
2023-04-27T04:55:52.265Z,48.3123
2023-04-27T04:56:53.994Z,48.1192
2023-04-27T04:57:55.643Z,48.5562
2023-04-27T04:58:57.249Z,49.0292
2023-04-27T04:59:59.635Z,48.8792
2023-04-27T05:01:00.499Z,48.2769
2023-04-27T05:02:02.360Z,48.2800
2023-04-27T05:03:04.013Z,48.4431
2023-04-27T05:04:05.675Z,48.4285
2023-04-27T05:05:07.130Z,48.7677
2023-04-27T05:06:08.781Z,48.7185
2023-04-27T05:07:12.016Z,48.8969
2023-04-27T05:08:15.125Z,48.8146
2023-04-27T05:09:13.906Z,48.8092
2023-04-27T05:10:15.254Z,48.8431
2023-04-27T05:11:16.958Z,48.9423
2023-04-27T05:12:18.520Z,48.8669
2023-04-27T05:13:20.248Z,48.7862
2023-04-27T05:14:21.849Z,49.1362
2023-04-27T05:15:23.483Z,49.0569
2023-04-27T05:16:25.170Z,49.1315
2023-04-27T05:17:26.824Z,49.1685
2023-04-27T05:18:28.450Z,49.4677
2023-04-27T05:19:30.157Z,49.1354
2023-04-27T05:20:32.645Z,49.2238
2023-04-27T05:21:33.351Z,49.1269
2023-04-27T05:22:35.040Z,49.1938
2023-04-27T05:23:37.109Z,49.4485
2023-04-27T05:24:38.651Z,49.8300
2023-04-27T05:25:39.967Z,49.0446
2023-04-27T05:26:41.601Z,49.5454
2023-04-27T05:27:43.263Z,49.0062
2023-04-27T05:28:44.914Z,48.9262
2023-04-27T05:29:46.602Z,48.9369
2023-04-27T05:30:48.222Z,49.0092
2023-04-27T05:31:49.883Z,49.0985
2023-04-27T05:32:51.492Z,49.2692
2023-04-27T05:33:53.136Z,49.0777
2023-04-27T05:34:54.803Z,49.1238
2023-04-27T05:35:56.483Z,49.2277
2023-04-27T05:36:58.125Z,49.2923
2023-04-27T05:38:00.687Z,49.2792
2023-04-27T05:39:01.408Z,49.3831
2023-04-27T05:40:03.107Z,49.2546
2023-04-27T05:41:05.081Z,49.4162
2023-04-27T05:42:06.363Z,49.3185
2023-04-27T05:43:07.930Z,49.1500
2023-04-27T05:44:09.609Z,49.2885
2023-04-27T05:45:11.208Z,49.5100
2023-04-27T05:46:13.033Z,49.4492
2023-04-27T05:47:16.169Z,49.4292
2023-04-27T05:48:16.208Z,49.1815
2023-04-27T05:49:17.811Z,49.4062
2023-04-27T05:50:19.506Z,49.1731
2023-04-27T05:51:21.107Z,49.4269
2023-04-27T05:52:22.760Z,49.5238
2023-04-27T05:53:24.417Z,49.5392
2023-04-27T05:54:26.018Z,49.3662
2023-04-27T05:55:27.737Z,49.5331
2023-04-27T05:56:30.221Z,49.5531
2023-04-27T05:57:31.109Z,49.5531
2023-04-27T05:58:32.633Z,49.7500
2023-04-27T05:59:34.293Z,49.6608
2023-04-27T06:00:36.131Z,49.5554
2023-04-27T06:01:37.725Z,49.5608
2023-04-27T06:02:39.631Z,49.9323
2023-04-27T06:03:41.937Z,49.8577
2023-04-27T06:04:42.627Z,49.7369
2023-04-27T06:05:44.290Z,49.8046
2023-04-27T06:06:46.329Z,49.8108
2023-04-27T06:07:47.623Z,49.8762
2023-04-27T06:08:49.194Z,50.1069
2023-04-27T06:09:50.974Z,50.2215
2023-04-27T06:10:52.484Z,50.1177
2023-04-27T06:11:54.254Z,50.2385
2023-04-27T06:12:55.862Z,50.3146
2023-04-27T06:13:57.521Z,50.3654
2023-04-27T06:14:59.161Z,50.2700
2023-04-27T06:16:00.833Z,50.5069
2023-04-27T06:17:03.443Z,50.4900
2023-04-27T06:18:05.114Z,50.4500
2023-04-27T06:19:05.732Z,50.4615
2023-04-27T06:20:08.380Z,50.4908
2023-04-27T06:21:09.058Z,50.5946
2023-04-27T06:22:10.710Z,50.3808
2023-04-27T06:23:12.300Z,50.3338
2023-04-27T06:24:14.935Z,50.5946
2023-04-27T06:25:15.622Z,50.6931
2023-04-27T06:26:18.208Z,50.6877
2023-04-27T06:27:18.835Z,50.5554
2023-04-27T06:28:20.625Z,50.9285
2023-04-27T06:29:22.176Z,50.7369
2023-04-27T06:30:23.896Z,51.0169
2023-04-27T06:31:25.547Z,51.0369
2023-04-27T06:32:27.170Z,50.9431
2023-04-27T06:33:28.795Z,50.5231
2023-04-27T06:34:30.457Z,50.6300
2023-04-27T06:35:32.314Z,51.0708
2023-04-27T06:36:33.688Z,51.1846
2023-04-27T06:37:35.310Z,50.8762
2023-04-27T06:38:37.092Z,50.9108
2023-04-27T06:39:38.667Z,50.4723
2023-04-27T06:40:40.360Z,50.3462
2023-04-27T06:41:41.916Z,50.7323
2023-04-27T06:42:43.606Z,50.7092
2023-04-27T06:43:45.816Z,50.4331
2023-04-27T06:44:47.396Z,50.8415
2023-04-27T06:45:48.610Z,50.3508
2023-04-27T06:46:50.157Z,41.1523
2023-04-27T06:47:52.376Z,43.7862
2023-04-27T06:48:53.418Z,44.3469
2023-04-27T06:49:55.168Z,44.1562
2023-04-27T06:50:57.356Z,44.2731
2023-04-27T06:51:58.402Z,45.0969
2023-04-27T06:53:00.141Z,45.5123
2023-04-27T06:54:01.712Z,45.2223
2023-04-27T06:55:03.395Z,46.1146
2023-04-27T06:56:05.000Z,46.4915
2023-04-27T06:57:06.708Z,47.0177
2023-04-27T06:58:09.243Z,47.2031
2023-04-27T06:59:10.038Z,47.0508
2023-04-27T07:00:12.476Z,47.8438
2023-04-27T07:01:13.410Z,47.7062
2023-04-27T07:02:14.938Z,48.2069
2023-04-27T07:03:16.770Z,48.9823
2023-04-27T07:04:18.260Z,49.0046
2023-04-27T07:05:20.864Z,48.9200
2023-04-27T07:06:21.411Z,48.9938
2023-04-27T07:07:23.156Z,49.6038
2023-04-27T07:08:24.959Z,49.9354
2023-04-27T07:09:27.716Z,50.4085
2023-04-27T07:10:28.053Z,50.7392
2023-04-27T07:11:29.760Z,51.3923
2023-04-27T07:12:31.471Z,51.0315
2023-04-27T07:13:33.025Z,51.2838
2023-04-27T07:14:34.692Z,51.4531
2023-04-27T07:15:36.287Z,51.7169
2023-04-27T07:16:38.132Z,51.6338
2023-04-27T07:17:39.655Z,51.4492
2023-04-27T07:18:43.328Z,51.8000
2023-04-27T07:19:42.912Z,52.4731
2023-04-27T07:20:44.495Z,51.9485
2023-04-27T07:21:46.290Z,52.7854
2023-04-27T07:22:47.754Z,52.4946
2023-04-27T07:23:49.944Z,52.6700
2023-04-27T07:24:51.129Z,52.3269
2023-04-27T07:25:52.889Z,52.4869
2023-04-27T07:26:54.456Z,52.2315
2023-04-27T07:27:56.094Z,52.0038
2023-04-27T07:28:58.387Z,51.6177
2023-04-27T07:29:59.409Z,52.0423
2023-04-27T07:31:00.997Z,51.8554
2023-04-27T07:32:02.768Z,52.0762
2023-04-27T07:33:04.282Z,51.8731
2023-04-27T07:34:05.948Z,52.1723
2023-04-27T07:35:07.610Z,51.9777
2023-04-27T07:36:10.281Z,52.0477
2023-04-27T07:37:10.840Z,51.9031
2023-04-27T07:38:12.549Z,51.8846
2023-04-27T07:39:14.310Z,52.1500
2023-04-27T07:40:15.895Z,51.7638
2023-04-27T07:41:17.484Z,51.5315
2023-04-27T07:42:19.189Z,51.3515
2023-04-27T07:43:20.711Z,51.1077
2023-04-27T07:44:22.873Z,50.9285
2023-04-27T07:45:24.063Z,51.1577
2023-04-27T07:46:25.936Z,51.0015
2023-04-27T07:47:28.507Z,50.2146
2023-04-27T07:48:29.047Z,45.8977
2023-04-27T07:49:30.606Z,42.0777
2023-04-27T07:50:32.308Z,45.3477
2023-04-27T07:51:33.982Z,45.1092
2023-04-27T07:52:35.679Z,43.3300
2023-04-27T07:53:37.220Z,42.9162
2023-04-27T07:54:38.861Z,41.9177
2023-04-27T07:55:40.540Z,40.4654
2023-04-27T07:56:42.274Z,41.5662
2023-04-27T07:57:43.879Z,41.9162
2023-04-27T07:58:45.507Z,42.5700
2023-04-27T07:59:47.088Z,42.9462
2023-04-27T08:00:48.793Z,43.2700
2023-04-27T08:01:50.454Z,43.6962
2023-04-27T08:02:52.351Z,43.5754
2023-04-27T08:03:53.992Z,44.2162
2023-04-27T08:04:55.684Z,41.0900
2023-04-27T08:05:57.465Z,40.6731
2023-04-27T08:06:59.004Z,42.9592
2023-04-27T08:08:00.610Z,38.9992
2023-04-27T08:09:01.998Z,39.4400
2023-04-27T08:10:03.592Z,40.3723
2023-04-27T08:11:05.278Z,40.6892
2023-04-27T08:12:06.928Z,41.0362
2023-04-27T08:13:08.624Z,35.4285
2023-04-27T08:14:10.205Z,36.7015
2023-04-27T08:15:11.827Z,37.3246
2023-04-27T08:16:13.536Z,34.2277
2023-04-27T08:17:15.150Z,36.6500
2023-04-27T08:18:16.887Z,37.0569
2023-04-27T08:19:18.492Z,37.0454
2023-04-27T08:20:20.078Z,37.8931
2023-04-27T08:21:21.767Z,38.1492
2023-04-27T08:22:23.518Z,38.9438
2023-04-27T08:23:25.105Z,39.3023
2023-04-27T08:24:26.718Z,40.2154
2023-04-27T08:25:28.378Z,40.5100
2023-04-27T08:26:29.975Z,41.7515
2023-04-27T08:27:31.725Z,37.9862
2023-04-27T08:28:33.322Z,38.8854
2023-04-27T08:29:35.099Z,35.9485
2023-04-27T08:30:37.224Z,36.4677
2023-04-27T08:31:38.395Z,38.7446
2023-04-27T08:32:39.939Z,38.7969
2023-04-27T08:33:41.822Z,39.1777
2023-04-27T08:34:43.191Z,39.0192
2023-04-27T08:35:44.855Z,39.7408
2023-04-27T08:36:46.536Z,40.6392
2023-04-27T08:37:48.221Z,41.0908
2023-04-27T08:38:49.816Z,41.2346
2023-04-27T08:39:51.500Z,41.2700
2023-04-27T08:40:53.096Z,41.7900
2023-04-27T08:41:54.773Z,42.9231
2023-04-27T08:42:56.464Z,41.8685
2023-04-27T08:43:59.116Z,42.9431
2023-04-27T08:44:59.689Z,41.3700
2023-04-27T08:46:01.420Z,38.5685
2023-04-27T08:47:02.978Z,39.8069
2023-04-27T08:48:04.785Z,39.6492
2023-04-27T08:49:06.483Z,39.3100
2023-04-27T08:50:07.945Z,39.0592
2023-04-27T08:51:09.680Z,38.4531
2023-04-27T08:52:11.320Z,37.4700
2023-04-27T08:53:12.968Z,39.9815
2023-04-27T08:54:14.571Z,37.5385
2023-04-27T08:55:16.917Z,38.2192
2023-04-27T08:56:17.826Z,38.8638
2023-04-27T08:57:19.551Z,38.7631
2023-04-27T08:58:21.184Z,39.6954
2023-04-27T08:59:22.874Z,40.3754
2023-04-27T09:00:24.493Z,40.3523
2023-04-27T09:01:26.184Z,40.7662
2023-04-27T09:02:27.784Z,41.0308
2023-04-27T09:03:29.524Z,41.8623
2023-04-27T09:04:31.097Z,42.0515
2023-04-27T09:05:32.766Z,42.3515
2023-04-27T09:06:34.376Z,42.6238
2023-04-27T09:07:35.997Z,43.4623
2023-04-27T09:08:37.604Z,43.3046
2023-04-27T09:09:39.245Z,36.3269
2023-04-27T09:10:40.972Z,35.8762
2023-04-27T09:11:42.595Z,38.1885
2023-04-27T09:12:44.249Z,40.1300
2023-04-27T09:13:45.842Z,39.0200
2023-04-27T09:14:47.573Z,39.3192
2023-04-27T09:15:49.269Z,39.7323
2023-04-27T09:16:50.897Z,39.9915
2023-04-27T09:17:52.436Z,40.6685
2023-04-27T09:18:54.126Z,40.4815
2023-04-27T09:19:55.805Z,41.0338
2023-04-27T09:20:57.487Z,38.6846
2023-04-27T09:21:59.067Z,35.2831
2023-04-27T09:23:00.691Z,35.8946
2023-04-27T09:24:02.378Z,36.1015
2023-04-27T09:25:04.115Z,36.2885
2023-04-27T09:26:05.726Z,36.0485
2023-04-27T09:27:07.373Z,36.2677
2023-04-27T09:28:09.022Z,36.3023
2023-04-27T09:29:10.664Z,35.6746
2023-04-27T09:30:12.321Z,35.6508
2023-04-27T09:31:13.964Z,35.4523
2023-04-27T09:32:16.791Z,35.3969
2023-04-27T09:33:18.238Z,34.4915
2023-04-27T09:34:18.898Z,36.0246
2023-04-27T09:35:20.568Z,35.7346
2023-04-27T09:36:22.224Z,35.5915
2023-04-27T09:37:23.796Z,35.8869
2023-04-27T09:38:25.493Z,36.1723
2023-04-27T09:39:27.104Z,34.9362
2023-04-27T09:40:29.319Z,36.2369
2023-04-27T09:41:30.610Z,34.5462
2023-04-27T09:42:32.285Z,35.2815
2023-04-27T09:43:33.809Z,35.8938
2023-04-27T09:44:35.371Z,34.8085
2023-04-27T09:45:37.315Z,34.5069
2023-04-27T09:46:38.715Z,35.2354
2023-04-27T09:47:40.493Z,34.5646
2023-04-27T09:48:42.726Z,34.5192
2023-04-27T09:49:43.687Z,34.1315
2023-04-27T09:50:46.254Z,33.6369
2023-04-27T09:51:47.085Z,34.5092
2023-04-27T09:52:48.730Z,34.0200
2023-04-27T09:53:50.300Z,33.8085
2023-04-27T09:54:51.966Z,34.6631
2023-04-27T09:55:53.604Z,34.5800
2023-04-27T09:56:55.286Z,35.0423
2023-04-27T09:57:56.886Z,34.7846
2023-04-27T09:58:59.247Z,34.7931
2023-04-27T10:00:00.227Z,34.6338
2023-04-27T10:01:01.870Z,35.5377
2023-04-27T10:02:17.099Z,33.4731
2023-04-27T10:03:05.282Z,32.6238
2023-04-27T10:04:08.157Z,32.9692
2023-04-27T10:05:08.592Z,35.7308
2023-04-27T10:06:10.221Z,35.5908
2023-04-27T10:07:11.793Z,33.7700
2023-04-27T10:08:13.583Z,34.2185
2023-04-27T10:09:15.423Z,33.4415
2023-04-27T10:10:16.889Z,32.7962
2023-04-27T10:11:18.455Z,31.9723
2023-04-27T10:12:20.109Z,32.4800
2023-04-27T10:13:21.783Z,32.7515
2023-04-27T10:14:23.441Z,32.0654
2023-04-27T10:15:25.134Z,31.8292
2023-04-27T10:16:26.722Z,32.1992
2023-04-27T10:17:28.381Z,32.1508
2023-04-27T10:18:30.102Z,33.3169
2023-04-27T10:19:31.733Z,33.6762
2023-04-27T10:20:33.301Z,32.6415
2023-04-27T10:21:34.977Z,32.5462
2023-04-27T10:22:36.632Z,32.6969
2023-04-27T10:23:38.270Z,32.0569
2023-04-27T10:24:40.381Z,32.2569
2023-04-27T10:25:41.507Z,32.4131
2023-04-27T10:26:43.830Z,31.4723
2023-04-27T10:27:45.798Z,30.9662
2023-04-27T10:28:46.598Z,34.4131
2023-04-27T10:29:48.222Z,31.9923
2023-04-27T10:30:49.917Z,32.0554
2023-04-27T10:31:51.492Z,32.2438
2023-04-27T10:32:53.205Z,32.2546
2023-04-27T10:33:54.811Z,32.6454
2023-04-27T10:34:57.420Z,33.0554
2023-04-27T10:35:58.099Z,32.4331
2023-04-27T10:36:59.696Z,32.1469
2023-04-27T10:38:01.425Z,31.2523
2023-04-27T10:39:03.079Z,33.0292
2023-04-27T10:40:08.339Z,34.4392
2023-04-27T10:41:06.305Z,35.2754
2023-04-27T10:42:07.999Z,35.5538
2023-04-27T10:43:09.607Z,34.8785
2023-04-27T10:44:11.362Z,34.1877
2023-04-27T10:45:12.963Z,33.3538
2023-04-27T10:46:14.678Z,33.4962
2023-04-27T10:47:16.248Z,32.4431
2023-04-27T10:48:17.947Z,31.6169
2023-04-27T10:49:19.620Z,35.7562
2023-04-27T10:50:21.309Z,35.9838
2023-04-27T10:51:22.871Z,33.7885
2023-04-27T10:52:24.493Z,33.0215
2023-04-27T10:53:26.200Z,34.5846
2023-04-27T10:54:27.838Z,34.3138
2023-04-27T10:55:29.561Z,33.7531
2023-04-27T10:56:31.162Z,33.7146
2023-04-27T10:57:32.827Z,32.9462
2023-04-27T10:58:45.254Z,32.7700
2023-04-27T10:59:36.156Z,33.0992
2023-04-27T11:00:37.760Z,33.1862
2023-04-27T11:01:39.514Z,32.3585
2023-04-27T11:02:41.095Z,32.5677
2023-04-27T11:03:42.802Z,32.5354
2023-04-27T11:04:44.448Z,34.3062
2023-04-27T11:05:46.425Z,33.5754
2023-04-27T11:06:47.727Z,31.9008
2023-04-27T11:07:49.350Z,33.6731
2023-04-27T11:08:50.993Z,33.4108
2023-04-27T11:09:52.711Z,33.7792
2023-04-27T11:10:54.306Z,34.7677
2023-04-27T11:11:55.973Z,36.7885
2023-04-27T11:12:57.575Z,37.2546
2023-04-27T11:13:59.334Z,38.2046
2023-04-27T11:15:01.012Z,36.6238
2023-04-27T11:16:02.628Z,35.6438
2023-04-27T11:17:04.264Z,34.5715
2023-04-27T11:18:05.931Z,36.7215
2023-04-27T11:19:07.500Z,38.7746
2023-04-27T11:20:09.433Z,36.4369
2023-04-27T11:21:10.874Z,37.4992
2023-04-27T11:22:12.595Z,35.5692
2023-04-27T11:23:14.116Z,37.3131
2023-04-27T11:24:15.792Z,35.4962
2023-04-27T11:25:17.929Z,34.3185
2023-04-27T11:26:19.201Z,37.2685
2023-04-27T11:27:20.790Z,33.4846
2023-04-27T11:28:22.421Z,32.9031
2023-04-27T11:29:24.024Z,34.5077
2023-04-27T11:30:25.937Z,34.3346
2023-04-27T11:31:28.438Z,33.4915
2023-04-27T11:32:29.057Z,35.4877
2023-04-27T11:33:30.673Z,33.1523
2023-04-27T11:34:32.342Z,32.6777
2023-04-27T11:35:33.979Z,33.8877
2023-04-27T11:36:35.692Z,35.7985
2023-04-27T11:37:37.382Z,34.4477
2023-04-27T11:38:38.966Z,38.7377
2023-04-27T11:39:40.602Z,37.7677
2023-04-27T11:40:42.360Z,33.4615
2023-04-27T11:41:44.040Z,33.0823
2023-04-27T11:42:45.558Z,34.2838
2023-04-27T11:43:47.327Z,36.5185
2023-04-27T11:44:48.912Z,36.0846
2023-04-27T11:45:51.456Z,33.9715
2023-04-27T11:46:52.365Z,36.6215
2023-04-27T11:47:54.011Z,35.7908
2023-04-27T11:48:55.620Z,35.0762
2023-04-27T11:49:57.204Z,36.3008
2023-04-27T11:50:58.943Z,35.9208
2023-04-27T11:52:00.589Z,36.7669
2023-04-27T11:53:02.225Z,33.2046
2023-04-27T11:54:03.846Z,33.8985
2023-04-27T11:55:05.510Z,33.9877
2023-04-27T11:56:07.167Z,35.4531
2023-04-27T11:57:08.859Z,35.0354
2023-04-27T11:58:10.425Z,35.7808
2023-04-27T11:59:12.204Z,36.4708
2023-04-27T12:00:13.795Z,35.7515
2023-04-27T12:01:21.856Z,33.1892
2023-04-27T12:02:17.157Z,30.8938
2023-04-27T12:03:18.882Z,31.1777
2023-04-27T12:04:20.798Z,33.7308
2023-04-27T12:05:22.104Z,31.1446
2023-04-27T12:07:25.344Z,35.2646
2023-04-27T12:08:27.009Z,31.7969
2023-04-27T12:09:28.622Z,29.8900
2023-04-27T12:10:30.297Z,30.7662
2023-04-27T12:11:32.044Z,31.9723
2023-04-27T12:12:33.677Z,29.0254
2023-04-27T12:13:35.533Z,31.5638
2023-04-27T12:14:36.914Z,34.4954
2023-04-27T12:15:38.630Z,32.2062
2023-04-27T12:16:40.264Z,31.8931
2023-04-27T12:17:42.059Z,30.9008
2023-04-27T12:18:43.570Z,32.5254
2023-04-27T12:19:45.308Z,32.3146
2023-04-27T12:20:46.886Z,33.6908
2023-04-27T12:21:48.567Z,31.8038
2023-04-27T12:22:50.193Z,28.5285
2023-04-27T12:23:51.933Z,25.5262
2023-04-27T12:24:53.535Z,26.4762
2023-04-27T12:25:55.146Z,27.6023
2023-04-27T12:26:56.878Z,25.6577